Portada
METAR-TAF:

METAR-TAF

Aeroports :

Aeroport Internacional Elefthérios Venizelos

Atenes, Grècia

latitud: 37-56N, longitud: 023-56E, altitud: 94 m

Observació

L'informe es va fer fa 23 minuts, a les 07:50 UTC
Vent 15 kt del Nord
Temperatura 31°C
Humitat 31%
Pressió 1012 hPa
Visibilitat 10 km o més
sense núvols per sota de 1500 mi sense presència de cumulonimbus.

METAR: LGAV 180750Z 01015KT CAVOK 31/12 Q1012 NOSIG

Hora: 11:13 (08:13 UTC)

Pronòstic

L'informe es va fer fa 3 hores i 13 minuts, a les 05:00 UTC
Pronòstic vàlid del 18 a les 06 UTC al 19 a les 06 UTC
Vent 10 kt del Nord/Nord-Oest
Visibilitat 10 km o més
Escasses núvols a una alçada de 3000 ft
Evolucionant progressivament
l' 18 a les 06 UTC al 18 a les 08 UTC
Vent 15 kt del Nord/Nord-Est amb ràfegues de 25 kt
Evolucionant progressivament
l' 18 a les 16 UTC al 18 a les 18 UTC
Vent 12 kt del Nord

TAF: LGAV 180500Z 1806/1906 34010KT 9999 FEW030 BECMG 1806/1808 02015G25KT BECMG 1816/1818 35012KT

Observacions i pronòstics meteorològics de més de 4000 aeroports (METAR i TAF).

Les estacions disponibles són els punts grocs i vermells al mapa.

Posi el ratolí al punt desitjat per veure el nom de l'estació.

Feu clic per veure les observacions i els pronòstics meteorològics.

Per canviar el mapa: feu clic els botons verds amb una creu de color negre per apropar; al botó verd amb un guió per allunyar la imatge; o en les fletxes verdes per a mapes adjacents.


METAR-TAF: